x

Portland 12 Nm Southeast Of Portland,me (44007) Wave Buoy

10:50 - Thu 28th Aug 2014 All times are EDT. -4 hours from GMT.

  • Sig Wave height 3.0ft
  • Swell Direction
  • Peak Period 14s
  • Average Period 8s
  • Wind
    11mph, 16mph gusts
  • Sea Temp 61°f
  • Luft Temp 64°f
  • Sea Pressure 1013.7mb
  • Portland 12 Nm Southeast Of Portland,me
  • Portland 12 Nm Southeast Of Portland,me

More Historic Weather Station data

Upgrade to MSW Pro to gain access to the past 30 days of data for over 8000 Wavebouys and Weather Stations around the globe.

Join Pro

Comparision Forecast

View Surf forecast
   
Do 08/28 10:50 3ft 14s 8s 11 16 mph 1013.7mb 61f 64f
9:50 3.5ft 14s 7s 18 22 mph 1012.8mb 61f 65f
8:50 3.5ft 12s 7s 16 22 mph 1012.3mb 61f 66f
7:50 3.5ft 14s 7s 16 18 mph 1011.7mb 61f 66f
6:50 4ft 13s 6s 22 25 mph 1010.4mb 62f 67f
5:50 3.5ft 13s 6s 18 22 mph 1009.6mb 62f 68f
4:50 3.5ft 13s 8s 16 18 mph 1008.6mb 63f 68f
3:50 3.5ft 13s 8s 13 16 mph 1008.2mb 62f 69f
2:50 3.5ft 13s 7s 11 13 mph 1007.7mb 62f 68f
1:50 3.5ft 13s 9s 13 16 mph 1007.9mb 63f 69f
12:50 3.5ft 13s 8s 7 11 mph 1008mb 63f 68f
11:50 3ft 14s 8s 11 13 mph 1008.4mb 63f 67f
10:50 3ft 14s 7s 9 11 mph 1009.2mb 63f 66f
9:50 4ft 15s 9s 9 11 mph 1009.6mb 63f 66f
8:50 4ft 14s 9s 9 11 mph 1009.5mb 62f 65f
7:50 4ft 14s 8s 4 7 mph 1009.7mb 62f 64f
6:50 4ft 15s 8s 7 9 mph 1009.5mb 62f 64f
5:50 3.5ft 15s 8s 7 9 mph 1009.3mb 62f 65f
4:50 3.5ft 16s 7s 7 9 mph 1009mb 62f 64f
3:50 3.5ft 11s 7s 7 9 mph 1008.8mb 62f 65f
2:50 3ft 11s 7s 9
mph
1008.9mb 62f 65f
1:50 3ft 12s 7s 7
mph
1009.1mb 62f 64f
12:50 3ft 13s 6s 7
mph
1009.5mb 62f 65f
Mi 08/27 11:50 2.5ft 8s 6s 11
mph
1009.5mb 62f 66f
10:50 3ft 13s 6s 20 27 mph 1009.4mb 62f 70f
9:50 3ft 8s 6s 9
mph
1009.8mb 62f 75f
8:50 3ft 13s 6s 7
mph
1009.9mb 62f 70f
7:50 2.5ft 8s 5s 4 7 mph 1009.6mb 62f 68f
6:50 2.5ft 8s 5s 9
mph
1009.5mb 62f 67f
5:50 2.5ft 9s 5s 9 11 mph 1009.6mb 63f 67f
4:50 3ft 9s 5s 11 13 mph 1009.4mb 63f 67f
3:50 3ft 9s 5s 11 13 mph 1009.5mb 63f 67f
2:50 3ft 9s 5s 13 16 mph 1009.5mb 63f 68f
1:50 3ft 9s 5s 16
mph
1010.4mb 62f 67f
12:50 3.5ft 7s 5s 16 18 mph 1010.9mb 62f 66f
11:50 3.5ft 7s 5s 16 18 mph 1011.4mb 62f 67f
10:50 3.5ft 8s 5s 13 18 mph 1012.3mb 62f 65f
9:50 3ft 5s 5s 11 13 mph 1012.8mb 62f 66f
8:50 3ft 8s 5s 9 13 mph 1013.1mb 62f 65f
7:50 3ft 8s 5s 9
mph
1013.5mb 61f 65f
6:50 3ft 6s 5s 11
mph
1013.4mb 61f 66f
5:50 3.5ft 5s 5s 11
mph
1013.7mb 61f 65f
4:50 3.5ft 5s 5s 11 13 mph 1013.5mb 62f 65f
3:50 3.5ft 6s 5s 16 18 mph 1013.4mb 61f 66f
2:50 3.5ft 5s 5s 16 18 mph 1013.8mb 62f 66f
1:50 3.5ft 5s 5s 11 13 mph 1014.5mb 62f 66f
12:50 3.5ft 5s 5s 18 20 mph 1014.6mb 62f 67f
Di 08/26 11:50 3.5ft 5s 4s 16 18 mph 1015.1mb 63f 67f
10:50 3ft 8s 5s 16 18 mph 1015.4mb 63f 66f
9:50 3ft 8s 5s 9 11 mph 1016.3mb 63f 66f
8:50 3ft 8s 5s 13
mph
1016.5mb 62f 66f
7:50 2.5ft 8s 5s 13 16 mph 1016.5mb 63f 66f
6:50 3ft 9s 4s 13 16 mph 1016.8mb 63f 66f
5:50 3ft 9s 4s 13 16 mph 1017mb 63f 67f
4:50 2.5ft 9s 4s 16 18 mph 1017.6mb 63f 67f
3:50 3ft 9s 4s 13 16 mph 1018mb 64f 67f
2:50 2.5ft 7s 5s 13 18 mph 1018.5mb 64f 66f
1:50 2.5ft 9s 5s 13 16 mph 1019.2mb 64f 66f
12:50 3ft 7s 5s 13 16 mph 1019.8mb 64f 66f
11:50 2.5ft 8s 5s 11 13 mph 1020mb 64f 65f
10:50 2.5ft 8s 6s 9 11 mph 1020.6mb 64f 65f
9:50 3ft 9s 6s 4 7 mph 1020.7mb 64f 65f
8:50 2.5ft 8s 5s 4
mph
1020.8mb 63f 65f
7:50 2.5ft 8s 5s 4 7 mph 1020.7mb 63f 64f
6:50 2.5ft 9s 5s 4 7 mph 1020.5mb 63f 64f
5:50 2.5ft 8s 5s 4
mph
1020.1mb 63f 64f
4:50 2.5ft 9s 5s 4
mph
1019.9mb 63f 64f
3:50 2.5ft 9s 5s 7
mph
1019.8mb 64f 65f
2:50 2ft 9s 5s 7 9 mph 1019.5mb 64f 65f
1:50 2.5ft 7s 6s 9
mph
1019.9mb 64f 65f
12:50 2.5ft 9s 6s 9 11 mph 1019.8mb 64f 65f
Mo 08/25 11:50 2.5ft 9s 7s 7
mph
1019.9mb 64f 65f
10:50 2.5ft 8s 7s 7 9 mph 1019.8mb 64f 65f
9:50 3ft 8s 7s 7
mph
1019.8mb 64f 66f
8:50 2.5ft 8s 7s 7
mph
1019.9mb 65f 66f
7:50 3ft 8s 7s 7
mph
1019.6mb 65f 67f
6:50 3ft 8s 7s 7
mph
1019.3mb 65f 67f
5:50 3ft 8s 7s 9
mph
1019.4mb 65f 68f
4:50 2.5ft 9s 7s 7 9 mph 1019.3mb 65f 67f
3:50 2.5ft 9s 7s 7 9 mph 1019.2mb 65f 68f
2:50 2.5ft 7s 7s 7 9 mph 1019.6mb 66f 68f
1:50 2.5ft 10s 7s 7 9 mph 1020mb 66f 68f
12:50 2.5ft 9s 7s 7
mph
1020.3mb 66f 67f
11:50 2.5ft 9s 7s 7
mph
1020.6mb 66f 67f
10:50 2.5ft 9s 7s 4 7 mph 1020.6mb 64f 66f
9:50 3ft 8s 7s 2
mph
1020.5mb 64f 66f
8:50 3ft 8s 7s 2
mph
1020.3mb 63f 65f
7:50 2.5ft 8s 7s 2
mph
1020.3mb 63f 66f
6:50 2.5ft 8s 7s 7
mph
1019.8mb 63f 65f
5:50 2.5ft 8s 7s 4 7 mph 1019.3mb 63f 66f
4:50 2.5ft 9s 7s 2 4 mph 1018.9mb 63f 65f
3:50 2.5ft 8s 7s 7
mph
1018.5mb 63f 68f